createdAt,value
2022-11-16T00:00:01.488Z,100886.47
2022-11-16T00:03:07.880Z,100889.13
2022-11-16T00:06:12.302Z,100885.69
2022-11-16T00:09:24.083Z,100876.72
2022-11-16T00:12:28.440Z,100881.28
2022-11-16T00:15:31.236Z,100873.28
2022-11-16T00:18:34.908Z,100878.59
2022-11-16T00:21:38.056Z,100892.88
2022-11-16T00:24:40.936Z,100874.28
2022-11-16T00:27:45.117Z,100874.28
2022-11-16T00:30:48.098Z,100860.13
2022-11-16T00:33:51.860Z,100859.16
2022-11-16T00:36:54.684Z,100854.81
2022-11-16T00:39:57.559Z,100852.13
2022-11-16T00:43:01.709Z,100849.47
2022-11-16T00:46:05.214Z,100839.72
2022-11-16T00:49:08.278Z,100842.41
2022-11-16T00:52:11.133Z,100849.53
2022-11-16T00:55:14.023Z,100846.03
2022-11-16T00:58:20.997Z,100849.59
2022-11-16T01:01:30.816Z,100853.13
2022-11-16T01:04:33.746Z,100849.59
2022-11-16T01:07:37.014Z,100850.56
2022-11-16T01:10:41.750Z,100842.56
2022-11-16T01:13:47.290Z,100844.28
2022-11-16T01:16:50.925Z,100845.22
2022-11-16T01:19:54.190Z,100837.25
2022-11-16T01:22:57.191Z,100834.63
2022-11-16T01:26:01.745Z,100834.63
2022-11-16T01:29:07.511Z,100828.47
2022-11-16T01:32:15.832Z,100829.38
2022-11-16T01:35:20.143Z,100827.66
2022-11-16T01:38:28.436Z,100834.81
2022-11-16T01:41:33.039Z,100817.00
2022-11-16T01:45:02.475Z,100822.31
2022-11-16T01:48:06.587Z,100821.47
2022-11-16T01:51:10.759Z,100825.94
2022-11-16T01:54:15.023Z,100823.19
2022-11-16T01:57:32.888Z,100810.81
2022-11-16T02:00:43.166Z,100814.41
2022-11-16T02:04:11.354Z,100803.75
2022-11-16T02:07:24.522Z,100804.63
2022-11-16T02:10:42.985Z,100801.19
2022-11-16T02:13:58.825Z,100790.53
2022-11-16T02:17:12.003Z,100789.66
2022-11-16T02:20:42.120Z,100785.28
2022-11-16T02:24:10.270Z,100787.94
2022-11-16T02:27:45.790Z,100782.63
2022-11-16T02:30:53.792Z,100778.13
2022-11-16T02:33:58.055Z,100775.47
2022-11-16T02:37:06.228Z,100770.13
2022-11-16T02:40:12.695Z,100770.22
2022-11-16T02:43:21.551Z,100771.09
2022-11-16T02:46:31.065Z,100773.84
2022-11-16T02:49:37.622Z,100781.75
2022-11-16T02:52:40.513Z,100764.97
2022-11-16T02:55:45.676Z,100764.09
2022-11-16T02:58:49.055Z,100755.25
2022-11-16T03:02:03.617Z,100763.25
2022-11-16T03:05:11.122Z,100755.25
2022-11-16T03:08:26.435Z,100755.25
2022-11-16T03:11:48.371Z,100761.44
2022-11-16T03:14:56.015Z,100761.44
2022-11-16T03:18:02.902Z,100760.56
2022-11-16T03:21:12.288Z,100754.41
2022-11-16T03:24:16.029Z,100743.75
2022-11-16T03:27:30.152Z,100748.22
2022-11-16T03:30:37.958Z,100740.22
2022-11-16T03:33:47.062Z,100742.88
2022-11-16T03:36:53.356Z,100745.59
2022-11-16T03:39:58.766Z,100749.13
2022-11-16T03:43:03.937Z,100741.16
2022-11-16T03:46:07.199Z,100735.81
2022-11-16T03:49:11.437Z,100742.88
2022-11-16T03:52:15.468Z,100745.47
2022-11-16T03:55:18.758Z,100737.38
2022-11-16T03:58:21.984Z,100730.25
2022-11-16T04:01:24.889Z,100721.41
2022-11-16T04:04:47.925Z,100724.84
2022-11-16T04:08:08.132Z,100732.84
2022-11-16T04:11:30.442Z,100729.25
2022-11-16T04:14:51.160Z,100720.38
2022-11-16T04:18:12.785Z,100717.72
2022-11-16T04:21:40.858Z,100718.50
2022-11-16T04:24:47.968Z,100724.72
2022-11-16T04:28:08.665Z,100714.94
2022-11-16T04:31:29.730Z,100716.63
2022-11-16T04:35:00.296Z,100712.25
2022-11-16T04:38:06.111Z,100718.44
2022-11-16T04:41:31.334Z,100725.56
2022-11-16T04:44:50.198Z,100726.41
2022-11-16T04:47:54.663Z,100717.63
2022-11-16T04:51:02.555Z,100718.59
2022-11-16T04:54:07.180Z,100720.31
2022-11-16T04:57:10.057Z,100718.59
2022-11-16T05:00:15.173Z,100710.59
2022-11-16T05:03:18.124Z,100708.88
2022-11-16T05:06:21.195Z,100711.53
2022-11-16T05:09:26.008Z,100695.63
2022-11-16T05:12:29.518Z,100698.22
2022-11-16T05:15:35.708Z,100692.06
2022-11-16T05:18:38.578Z,100689.44
2022-11-16T05:21:41.295Z,100691.19
2022-11-16T05:24:47.708Z,100700.09
2022-11-16T05:27:50.856Z,100692.19
2022-11-16T05:30:53.784Z,100701.97
2022-11-16T05:33:59.311Z,100705.59
2022-11-16T05:37:02.440Z,100693.19
2022-11-16T05:40:09.218Z,100690.53
2022-11-16T05:43:25.217Z,100699.41
2022-11-16T05:46:46.190Z,100697.66
2022-11-16T05:49:49.097Z,100701.19
2022-11-16T05:52:52.079Z,100701.19
2022-11-16T05:55:56.382Z,100703.84
2022-11-16T05:59:01.020Z,100703.84
2022-11-16T06:02:04.858Z,100698.53
2022-11-16T06:05:10.235Z,100695.97
2022-11-16T06:08:13.102Z,100706.59
2022-11-16T06:11:17.654Z,100703.94
2022-11-16T06:14:21.452Z,100703.94
2022-11-16T06:17:24.360Z,100705.75
2022-11-16T06:20:27.347Z,100702.16
2022-11-16T06:23:30.552Z,100698.63
2022-11-16T06:26:34.871Z,100696.81
2022-11-16T06:29:38.588Z,100695.88
2022-11-16T06:32:41.838Z,100697.66
2022-11-16T06:35:46.447Z,100701.19
2022-11-16T06:38:54.465Z,100698.53
2022-11-16T06:42:00.087Z,100709.19
2022-11-16T06:45:05.899Z,100715.38
2022-11-16T06:48:14.872Z,100714.50
2022-11-16T06:51:17.792Z,100716.31
2022-11-16T06:54:21.001Z,100718.03
2022-11-16T06:57:25.391Z,100727.78
2022-11-16T07:00:28.844Z,100719.84
2022-11-16T07:03:33.010Z,100711.84
2022-11-16T07:06:38.270Z,100715.38
2022-11-16T07:09:44.356Z,100717.19
2022-11-16T07:12:49.081Z,100719.28
2022-11-16T07:15:54.801Z,100731.13
2022-11-16T07:18:59.240Z,100738.56
2022-11-16T07:22:04.987Z,100741.34
2022-11-16T07:25:09.738Z,100736.88
2022-11-16T07:28:14.044Z,100740.34
2022-11-16T07:31:17.780Z,100736.66
2022-11-16T07:34:20.931Z,100739.09
2022-11-16T07:37:37.648Z,100746.78
2022-11-16T07:40:41.249Z,100748.34
2022-11-16T07:43:51.481Z,100741.00
2022-11-16T07:47:00.586Z,100743.50
2022-11-16T07:50:04.064Z,100746.03
2022-11-16T07:53:08.748Z,100751.25
2022-11-16T07:56:12.662Z,100744.13
2022-11-16T07:59:18.462Z,100738.81
2022-11-16T08:02:21.775Z,100752.13
2022-11-16T08:05:26.471Z,100747.72
2022-11-16T08:08:30.558Z,100749.47
2022-11-16T08:11:33.578Z,100748.69
2022-11-16T08:14:37.940Z,100750.47
2022-11-16T08:17:40.824Z,100750.56
2022-11-16T08:20:46.698Z,100754.94
2022-11-16T08:23:52.676Z,100753.22
2022-11-16T08:26:59.850Z,100750.56
2022-11-16T08:30:09.812Z,100751.50
2022-11-16T08:33:14.130Z,100751.50
2022-11-16T08:36:18.149Z,100748.91
2022-11-16T08:39:22.528Z,100764.03
2022-11-16T08:42:26.017Z,100757.00
2022-11-16T08:45:31.378Z,100755.25
2022-11-16T08:48:34.545Z,100758.00
2022-11-16T08:51:38.415Z,100757.22
2022-11-16T08:54:42.493Z,100759.00
2022-11-16T08:57:45.554Z,100752.81
2022-11-16T09:00:52.086Z,100753.69
2022-11-16T09:03:55.200Z,100753.84
2022-11-16T09:06:58.058Z,100744.03
2022-11-16T09:10:00.950Z,100749.44
2022-11-16T09:13:03.911Z,100756.50
2022-11-16T09:16:08.865Z,100763.63
2022-11-16T09:19:11.803Z,100768.09
2022-11-16T09:22:14.612Z,100758.41
2022-11-16T09:25:19.062Z,100745.09
2022-11-16T09:28:23.158Z,100746.88
2022-11-16T09:31:28.352Z,100748.66
2022-11-16T09:34:31.178Z,100746.09
2022-11-16T09:37:33.994Z,100734.47
2022-11-16T09:40:39.594Z,100725.63
2022-11-16T09:43:53.674Z,100725.63
2022-11-16T09:47:00.000Z,100717.56
2022-11-16T09:50:06.537Z,100726.44
2022-11-16T09:53:20.187Z,100722.81
2022-11-16T09:56:25.222Z,100723.69
2022-11-16T09:59:32.873Z,100732.53
2022-11-16T10:02:44.283Z,100728.94
2022-11-16T10:05:54.089Z,100716.56
2022-11-16T10:08:57.669Z,100718.28
2022-11-16T10:12:09.668Z,100709.38
2022-11-16T10:15:40.625Z,100708.50
2022-11-16T10:18:55.745Z,100693.38
2022-11-16T10:22:04.473Z,100696.09
2022-11-16T10:25:16.276Z,100682.72
2022-11-16T10:28:48.399Z,100682.72
2022-11-16T10:32:04.216Z,100687.09
2022-11-16T10:35:18.008Z,100672.91
2022-11-16T10:38:25.538Z,100674.75
2022-11-16T10:41:36.406Z,100684.44
2022-11-16T10:44:42.673Z,100669.41
2022-11-16T10:47:53.010Z,100678.31
2022-11-16T10:50:57.335Z,100679.19
2022-11-16T10:54:00.220Z,100673.97
2022-11-16T10:57:05.621Z,100665.09
2022-11-16T11:00:12.898Z,100665.97
2022-11-16T11:03:30.931Z,100656.25
2022-11-16T11:06:35.631Z,100662.53
2022-11-16T11:09:41.737Z,100657.19
2022-11-16T11:13:03.857Z,100655.38
2022-11-16T11:16:18.582Z,100649.22
2022-11-16T11:19:27.462Z,100649.22
2022-11-16T11:22:33.139Z,100652.78
2022-11-16T11:25:38.318Z,100645.72
2022-11-16T11:28:49.020Z,100651.06
2022-11-16T11:31:53.936Z,100656.38
2022-11-16T11:35:00.037Z,100653.72
2022-11-16T11:38:08.288Z,100651.06
2022-11-16T11:41:20.088Z,100660.88
2022-11-16T11:44:24.369Z,100657.34
2022-11-16T11:47:57.191Z,100657.34
2022-11-16T11:51:10.293Z,100654.69
2022-11-16T11:54:22.941Z,100651.94
2022-11-16T11:57:26.621Z,100648.41
2022-11-16T12:00:39.651Z,100644.03
2022-11-16T12:03:58.933Z,100648.41
2022-11-16T12:07:09.596Z,100644.91
2022-11-16T12:10:22.494Z,100651.06
2022-11-16T12:13:39.425Z,100650.22
2022-11-16T12:16:49.342Z,100651.06
2022-11-16T12:20:13.423Z,100641.38
2022-11-16T12:23:34.825Z,100647.56
2022-11-16T12:26:51.585Z,100640.41
2022-11-16T12:30:02.413Z,100645.72
2022-11-16T12:33:22.606Z,100640.41
2022-11-16T12:36:34.602Z,100635.06
2022-11-16T12:39:44.227Z,100642.13
2022-11-16T12:42:59.586Z,100639.47
2022-11-16T12:46:11.289Z,100649.22
2022-11-16T12:49:55.855Z,100647.47
2022-11-16T12:53:16.758Z,100646.59
2022-11-16T12:56:30.628Z,100647.47
2022-11-16T13:00:00.891Z,100650.13
2022-11-16T13:03:15.889Z,100652.78
2022-11-16T13:06:21.842Z,100651.94
2022-11-16T13:09:28.715Z,100647.47
2022-11-16T13:12:33.246Z,100642.13
2022-11-16T13:15:40.973Z,100644.81
2022-11-16T13:18:45.181Z,100646.53
2022-11-16T13:21:54.775Z,100641.22
2022-11-16T13:25:04.843Z,100645.66
2022-11-16T13:28:17.212Z,100636.81
2022-11-16T13:31:29.925Z,100635.03
2022-11-16T13:34:34.923Z,100642.13
2022-11-16T13:37:48.728Z,100629.75
2022-11-16T13:40:51.561Z,100630.63
2022-11-16T13:43:54.467Z,100640.41
2022-11-16T13:47:04.610Z,100637.75
2022-11-16T13:50:19.546Z,100635.94
2022-11-16T13:57:24.551Z,100626.16
2022-11-16T14:00:31.685Z,100626.16
2022-11-16T14:03:39.431Z,100624.38
2022-11-16T14:07:00.431Z,100625.28
2022-11-16T14:10:05.998Z,100625.28
2022-11-16T14:13:39.879Z,100627.97
2022-11-16T14:16:48.708Z,100626.16
2022-11-16T14:19:56.295Z,100626.25
2022-11-16T14:23:11.312Z,100621.75
2022-11-16T14:26:21.075Z,100620.06
2022-11-16T14:29:43.874Z,100624.44
2022-11-16T14:32:48.763Z,100626.16
2022-11-16T14:35:54.168Z,100629.69
2022-11-16T14:38:57.136Z,100626.16
2022-11-16T14:42:03.859Z,100622.56
2022-11-16T14:45:13.075Z,100620.84
2022-11-16T14:48:18.047Z,100618.19
2022-11-16T14:51:27.099Z,100610.19
2022-11-16T14:54:36.231Z,100611.13
2022-11-16T14:57:39.300Z,100620.84
2022-11-16T15:00:42.179Z,100615.50
2022-11-16T15:03:55.495Z,100616.44
2022-11-16T15:07:03.581Z,100613.78
2022-11-16T15:10:07.261Z,100613.78
2022-11-16T15:13:10.132Z,100609.31
2022-11-16T15:16:18.738Z,100614.59
2022-11-16T15:19:22.360Z,100607.53
2022-11-16T15:22:28.158Z,100615.50
2022-11-16T15:25:33.249Z,100618.09
2022-11-16T15:28:36.031Z,100614.66
2022-11-16T15:31:43.190Z,100612.84
2022-11-16T15:34:49.105Z,100619.09
2022-11-16T15:38:03.423Z,100611.13
2022-11-16T15:41:07.176Z,100620.84
2022-11-16T15:44:16.576Z,100616.44
2022-11-16T15:47:20.527Z,100612.06
2022-11-16T15:50:24.688Z,100612.06
2022-11-16T15:53:38.116Z,100619.09
2022-11-16T15:56:42.319Z,100614.66
2022-11-16T15:59:48.994Z,100616.44
2022-11-16T16:02:52.798Z,100623.50
2022-11-16T16:05:56.315Z,100621.75
2022-11-16T16:09:08.004Z,100625.28
2022-11-16T16:12:20.045Z,100629.75
2022-11-16T16:15:25.298Z,100628.03
2022-11-16T16:18:41.466Z,100624.50
2022-11-16T16:21:46.879Z,100626.31
2022-11-16T16:24:51.075Z,100626.31
2022-11-16T16:27:53.917Z,100615.66
2022-11-16T16:30:56.758Z,100615.66
2022-11-16T16:33:59.514Z,100613.78
2022-11-16T16:37:02.276Z,100618.25
2022-11-16T16:40:07.993Z,100614.66
2022-11-16T16:43:10.823Z,100629.75
2022-11-16T16:46:14.143Z,100624.44
2022-11-16T16:49:16.946Z,100616.44
2022-11-16T16:52:19.752Z,100619.09
2022-11-16T16:55:24.017Z,100614.66
2022-11-16T16:58:26.864Z,100619.09
2022-11-16T17:01:31.836Z,100614.72
2022-11-16T17:04:34.667Z,100616.53
2022-11-16T17:07:37.598Z,100621.75
2022-11-16T17:10:41.804Z,100615.59
2022-11-16T17:13:44.679Z,100621.75
2022-11-16T17:16:47.509Z,100613.78
2022-11-16T17:19:50.309Z,100613.78
2022-11-16T17:22:53.179Z,100618.19
2022-11-16T17:25:57.387Z,100618.25
2022-11-16T17:29:00.256Z,100628.91
2022-11-16T17:32:03.701Z,100619.09
2022-11-16T17:35:06.823Z,100620.06
2022-11-16T17:38:09.832Z,100634.25
2022-11-16T17:41:16.403Z,100622.72
2022-11-16T17:44:21.831Z,100618.25
2022-11-16T17:47:25.104Z,100614.72
2022-11-16T17:50:27.925Z,100619.09
2022-11-16T17:53:32.822Z,100615.50
2022-11-16T17:56:37.657Z,100615.50
2022-11-16T17:59:40.481Z,100619.03
2022-11-16T18:02:43.267Z,100620.84
2022-11-16T18:05:47.313Z,100630.56
2022-11-16T18:08:50.636Z,100627.91
2022-11-16T18:11:54.855Z,100627.03
2022-11-16T18:15:26.474Z,100637.69
2022-11-16T18:18:20.398Z,100636.81
2022-11-16T18:21:23.322Z,100626.16
2022-11-16T18:24:26.119Z,100628.81
2022-11-16T18:27:30.347Z,100635.94
2022-11-16T18:30:33.113Z,100633.22
2022-11-16T18:33:37.925Z,100635.03
2022-11-16T18:36:41.101Z,100636.81
2022-11-16T18:39:43.975Z,100633.22
2022-11-16T18:42:48.151Z,100626.94
2022-11-16T18:45:50.952Z,100627.03
2022-11-16T18:48:54.328Z,100630.56
2022-11-16T18:51:57.182Z,100638.56
2022-11-16T18:55:00.046Z,100644.81
2022-11-16T18:58:17.530Z,100646.53
2022-11-16T19:01:28.402Z,100643.00
2022-11-16T19:04:31.381Z,100646.59
2022-11-16T19:07:34.611Z,100642.13
2022-11-16T19:10:38.228Z,100639.47
2022-11-16T19:13:43.827Z,100636.81
2022-11-16T19:16:54.155Z,100637.69
2022-11-16T19:19:59.632Z,100618.19
2022-11-16T19:23:02.504Z,100625.25
2022-11-16T19:26:07.311Z,100632.34
2022-11-16T19:29:11.556Z,100638.56
2022-11-16T19:32:15.222Z,100639.38
2022-11-16T19:35:18.176Z,100643.00
2022-11-16T19:38:20.968Z,100650.13
2022-11-16T19:41:24.453Z,100653.66
2022-11-16T19:44:28.698Z,100651.94
2022-11-16T19:47:31.592Z,100654.59
2022-11-16T19:50:36.128Z,100656.31
2022-11-16T19:53:40.401Z,100642.13
2022-11-16T19:56:43.671Z,100643.88
2022-11-16T19:59:47.966Z,100654.53
2022-11-16T20:02:50.772Z,100658.13
2022-11-16T20:05:53.592Z,100651.00
2022-11-16T20:08:58.988Z,100654.53
2022-11-16T20:12:01.790Z,100652.78
2022-11-16T20:15:06.901Z,100663.44
2022-11-16T20:18:09.739Z,100666.09
2022-11-16T20:21:23.024Z,100662.56
2022-11-16T20:24:25.983Z,100678.56
2022-11-16T20:27:28.859Z,100680.34
2022-11-16T20:30:33.116Z,100683.97
2022-11-16T20:33:36.514Z,100685.69
2022-11-16T20:36:39.807Z,100676.75
2022-11-16T20:39:42.902Z,100679.44
2022-11-16T20:42:45.762Z,100669.66
2022-11-16T20:45:54.452Z,100676.75
2022-11-16T20:49:00.867Z,100684.75
2022-11-16T20:52:03.707Z,100679.44
2022-11-16T20:55:07.626Z,100675.03
2022-11-16T20:58:10.506Z,100679.50
2022-11-16T21:01:17.190Z,100678.56
2022-11-16T21:04:20.636Z,100690.16
2022-11-16T21:07:24.298Z,100685.75
2022-11-16T21:10:27.243Z,100688.34
2022-11-16T21:13:47.236Z,100687.50
2022-11-16T21:16:51.439Z,100683.88
2022-11-16T21:20:20.061Z,100677.69
2022-11-16T21:23:17.288Z,100670.56
2022-11-16T21:26:21.963Z,100677.69
2022-11-16T21:29:26.006Z,100660.88
2022-11-16T21:32:30.283Z,100671.53
2022-11-16T21:35:33.168Z,100672.34
2022-11-16T21:38:36.321Z,100683.88
2022-11-16T21:41:39.220Z,100682.19
2022-11-16T21:44:45.053Z,100683.00
2022-11-16T21:47:51.401Z,100683.00
2022-11-16T21:51:00.704Z,100688.34
2022-11-16T21:54:03.760Z,100696.31
2022-11-16T21:57:06.639Z,100693.66
2022-11-16T22:00:10.793Z,100691.00
2022-11-16T22:03:17.697Z,100681.22
2022-11-16T22:06:38.206Z,100694.53
2022-11-16T22:09:41.122Z,100693.66
2022-11-16T22:12:44.145Z,100694.53
2022-11-16T22:15:47.559Z,100699.94
2022-11-16T22:18:51.916Z,100703.47
2022-11-16T22:21:54.827Z,100690.22
2022-11-16T22:24:57.667Z,100699.00
2022-11-16T22:31:23.624Z,100696.41
2022-11-16T22:34:27.889Z,100687.50
2022-11-16T22:37:30.754Z,100697.28
2022-11-16T22:40:33.680Z,100699.00
2022-11-16T22:43:37.437Z,100688.34
2022-11-16T22:46:40.627Z,100698.16
2022-11-16T22:49:44.871Z,100699.00
2022-11-16T22:52:47.792Z,100697.28
2022-11-16T22:55:50.659Z,100697.28
2022-11-16T22:58:54.006Z,100696.41
2022-11-16T23:01:56.918Z,100696.41
2022-11-16T23:05:01.215Z,100700.88
2022-11-16T23:08:04.046Z,100696.50
2022-11-16T23:11:26.821Z,100685.84
2022-11-16T23:14:47.285Z,100679.75
2022-11-16T23:17:50.205Z,100682.53
2022-11-16T23:21:12.995Z,100670.31
2022-11-16T23:24:33.882Z,100673.22
2022-11-16T23:27:41.694Z,100680.47
2022-11-16T23:30:44.600Z,100677.03
2022-11-16T23:33:47.848Z,100668.09
2022-11-16T23:36:52.217Z,100669.81
2022-11-16T23:39:55.149Z,100664.41
2022-11-16T23:43:15.929Z,100655.53
2022-11-16T23:46:18.812Z,100654.53
2022-11-16T23:49:21.749Z,100642.06
2022-11-16T23:52:26.234Z,100642.06
2022-11-16T23:55:29.790Z,100636.69
2022-11-16T23:58:32.723Z,100631.34
